Time;durP1;ratioP1;P1;durP2;ratioP2;P2;SDS_P1;SDS_P2;PMS_P1;PMS_P2;Temp;Humidity;BMP_temperature;BMP_pressure;BME280_temperature;BME280_humidity;BME280_pressure;Samples;Min_cycle;Max_cycle;Signal;HPM_P1;HPM_P2
2023/12/26 00:01:13;;;;;;;5.10;3.50;;;;;;;6.21;100.00;99457.80;104926;1272;71916;-79
2023/12/26 00:03:41;;;;;;;10.60;4.00;;;;;;;6.22;100.00;99464.13;104609;1267;62086;-79
2023/12/26 00:06:10;;;;;;;5.30;3.20;;;;;;;6.24;100.00;99466.65;104790;1272;71099;-84
2023/12/26 00:08:37;;;;;;;3.80;2.40;;;;;;;6.24;100.00;99472.55;104988;1269;165530;-80
2023/12/26 00:11:05;;;;;;;4.30;2.80;;;;;;;6.24;100.00;99478.96;105314;1263;60146;-80
2023/12/26 00:13:32;;;;;;;2.60;2.20;;;;;;;6.25;100.00;99485.87;105369;1260;72060;-78
2023/12/26 00:16:00;;;;;;;6.30;3.20;;;;;;;6.24;100.00;99482.45;105425;1258;63725;-81
2023/12/26 00:18:27;;;;;;;4.10;2.40;;;;;;;6.22;100.00;99485.15;105322;1260;71554;-78
2023/12/26 00:20:55;;;;;;;2.80;2.00;;;;;;;6.20;100.00;99488.36;105391;1258;59874;-80
2023/12/26 00:23:23;;;;;;;4.20;2.50;;;;;;;6.18;100.00;99486.08;105442;1263;59598;-78
2023/12/26 00:25:52;;;;;;;4.10;1.90;;;;;;;6.15;100.00;99492.52;105290;1264;72936;-82
2023/12/26 00:28:20;;;;;;;3.20;2.10;;;;;;;6.11;100.00;99488.23;105493;1262;64409;-80
2023/12/26 00:30:47;;;;;;;8.90;3.30;;;;;;;6.07;100.00;99487.79;105276;1263;71623;-81
2023/12/26 00:33:15;;;;;;;3.00;2.60;;;;;;;6.02;100.00;99491.20;105425;1261;59705;-81
2023/12/26 00:35:42;;;;;;;3.60;2.70;;;;;;;5.98;100.00;99499.95;105297;1257;59628;-81
2023/12/26 00:38:10;;;;;;;4.70;3.20;;;;;;;5.93;100.00;99506.11;105799;1257;73057;-83
2023/12/26 00:40:41;;;;;;;3.90;2.90;;;;;;;5.89;100.00;99510.00;105891;1254;61844;-83
2023/12/26 00:43:09;;;;;;;4.50;3.40;;;;;;;5.86;100.00;99520.39;105953;1257;72540;-80
2023/12/26 00:45:37;;;;;;;5.90;3.20;;;;;;;5.82;100.00;99528.58;105892;1254;60427;-80
2023/12/26 00:48:04;;;;;;;9.90;4.10;;;;;;;5.80;100.00;99535.13;105642;1268;59685;-81
2023/12/26 00:50:32;;;;;;;7.10;4.00;;;;;;;5.77;100.00;99540.48;105922;1252;71949;-79
2023/12/26 00:53:00;;;;;;;6.50;3.80;;;;;;;5.74;100.00;99545.52;106007;1257;62684;-80
2023/12/26 00:55:28;;;;;;;9.70;5.00;;;;;;;5.71;100.00;99543.09;105659;1257;72419;-80
2023/12/26 00:57:56;;;;;;;7.70;4.60;;;;;;;5.69;100.00;99543.05;105511;1257;60866;-79
2023/12/26 01:00:24;;;;;;;8.80;4.00;;;;;;;5.67;100.00;99542.98;105682;1257;59714;-80
2023/12/26 01:02:52;;;;;;;9.80;4.90;;;;;;;5.66;100.00;99539.21;105761;1253;72898;-80
2023/12/26 01:05:20;;;;;;;8.80;5.00;;;;;;;5.65;100.00;99529.04;105814;1253;61482;-81
2023/12/26 01:07:48;;;;;;;11.10;5.60;;;;;;;5.63;100.00;99528.83;105680;1258;71499;-79
2023/12/26 01:10:16;;;;;;;8.20;5.50;;;;;;;5.61;100.00;99530.30;105794;1253;59962;-82
2023/12/26 01:12:44;;;;;;;10.00;5.20;;;;;;;5.59;100.00;99530.96;105875;1254;59542;-82
2023/12/26 01:15:12;;;;;;;9.10;4.30;;;;;;;5.56;100.00;99522.11;105858;1254;75236;-79
2023/12/26 01:17:40;;;;;;;9.50;4.30;;;;;;;5.53;100.00;99528.33;105905;1254;62592;-83
2023/12/26 01:20:08;;;;;;;9.50;5.00;;;;;;;5.50;100.00;99529.38;105827;1254;71500;-82
2023/12/26 01:22:35;;;;;;;8.10;4.70;;;;;;;5.46;100.00;99532.73;105653;1254;60040;-81
2023/12/26 01:25:05;;;;;;;9.80;5.30;;;;;;;5.42;100.00;99530.86;105936;1257;59747;-80
2023/12/26 01:27:33;;;;;;;10.30;6.30;;;;;;;5.38;100.00;99533.16;106180;1257;71946;-79
2023/12/26 01:30:02;;;;;;;11.10;5.40;;;;;;;5.34;100.00;99531.13;106193;1253;62989;-79
2023/12/26 01:32:30;;;;;;;11.60;6.20;;;;;;;5.31;100.00;99538.95;106528;1257;71668;-79
2023/12/26 01:34:58;;;;;;;10.60;6.30;;;;;;;5.27;100.00;99536.54;107649;1254;59792;-81
2023/12/26 01:37:27;;;;;;;10.80;6.40;;;;;;;5.24;100.00;99544.04;107677;1257;59642;-78
2023/12/26 01:39:54;;;;;;;11.80;6.70;;;;;;;5.20;100.00;99545.79;108021;1252;71901;-79
2023/12/26 01:42:22;;;;;;;11.80;7.00;;;;;;;5.17;100.00;99547.33;107027;1253;62648;-79
2023/12/26 01:44:51;;;;;;;10.20;6.90;;;;;;;5.14;100.00;99553.38;106204;1256;70668;-78
2023/12/26 01:47:19;;;;;;;11.90;6.40;;;;;;;5.12;100.00;99556.46;106154;1252;59751;-79
2023/12/26 01:49:47;;;;;;;10.40;5.40;;;;;;;5.10;100.00;99562.29;105985;1252;59744;-78
2023/12/26 01:52:14;;;;;;;7.10;3.70;;;;;;;5.08;100.00;99571.21;106076;1254;71823;-79
2023/12/26 01:54:41;;;;;;;3.40;2.40;;;;;;;5.07;100.00;99573.15;105927;1256;64299;-79
2023/12/26 01:57:09;;;;;;;3.80;1.80;;;;;;;5.06;100.00;99576.67;105873;1258;72666;-81
2023/12/26 01:59:37;;;;;;;4.00;2.70;;;;;;;5.07;100.00;99575.79;106202;1253;59746;-80
2023/12/26 02:02:06;;;;;;;3.20;1.30;;;;;;;5.08;100.00;99584.19;105993;1257;59502;-81
2023/12/26 02:04:33;;;;;;;2.90;1.90;;;;;;;5.09;100.00;99587.95;105829;1253;71807;-79
2023/12/26 02:07:02;;;;;;;4.70;2.80;;;;;;;5.11;100.00;99588.70;105619;1260;63620;-78
2023/12/26 02:09:30;;;;;;;8.60;3.90;;;;;;;5.14;100.00;99590.81;105948;1254;71125;-82
2023/12/26 02:11:58;;;;;;;11.20;4.90;;;;;;;5.16;100.00;99591.73;105797;1257;60891;-81
2023/12/26 02:14:26;;;;;;;12.00;6.30;;;;;;;5.20;100.00;99589.63;105639;1253;60134;-80
2023/12/26 02:16:54;;;;;;;18.50;5.90;;;;;;;5.24;100.00;99589.25;105793;1253;71692;-81
2023/12/26 02:19:24;;;;;;;12.80;5.60;;;;;;;5.26;100.00;99599.00;105737;1258;63534;-79
2023/12/26 02:21:52;;;;;;;12.60;6.40;;;;;;;5.28;100.00;99596.63;105662;1259;71711;-81
2023/12/26 02:24:19;;;;;;;9.50;6.90;;;;;;;5.31;100.00;99599.08;105573;1260;60793;-80
2023/12/26 02:26:47;;;;;;;22.40;12.40;;;;;;;5.32;100.00;99591.56;105729;1257;61844;-81
2023/12/26 02:29:14;;;;;;;22.00;15.20;;;;;;;5.33;100.00;99597.55;105748;1257;73011;-79
2023/12/26 02:31:43;;;;;;;35.20;18.40;;;;;;;5.33;100.00;99599.30;105704;1254;62623;-79
2023/12/26 02:34:10;;;;;;;24.20;18.90;;;;;;;5.32;100.00;99606.13;105712;1253;72822;-78
2023/12/26 02:36:38;;;;;;;30.30;19.70;;;;;;;5.30;100.00;99617.13;105596;1255;59827;-80
2023/12/26 02:39:09;;;;;;;24.50;14.30;;;;;;;5.27;100.00;99621.13;105775;1253;60679;-79
2023/12/26 02:41:36;;;;;;;20.20;10.80;;;;;;;5.24;100.00;99628.39;105749;1257;72660;-80
2023/12/26 02:44:06;;;;;;;21.00;9.60;;;;;;;5.23;100.00;99634.18;105508;1260;63728;-79
2023/12/26 02:46:35;;;;;;;21.30;8.00;;;;;;;5.22;100.00;99631.77;105748;1256;73955;-79
2023/12/26 02:49:02;;;;;;;17.90;7.40;;;;;;;5.23;100.00;99628.33;105687;1253;61531;-79
2023/12/26 02:51:30;;;;;;;15.70;7.20;;;;;;;5.22;100.00;99635.29;105725;1259;60166;-77
2023/12/26 02:53:57;;;;;;;20.50;7.70;;;;;;;5.21;100.00;99642.09;105662;1257;73114;-79
2023/12/26 02:56:25;;;;;;;11.70;6.30;;;;;;;5.20;100.00;99642.27;105737;1258;62481;-79
2023/12/26 02:58:53;;;;;;;11.20;5.50;;;;;;;5.20;100.00;99644.70;105661;1254;72447;-81
2023/12/26 03:01:20;;;;;;;12.70;4.60;;;;;;;5.19;100.00;99650.79;105705;1257;59724;-80
2023/12/26 03:03:48;;;;;;;11.10;6.60;;;;;;;5.19;100.00;99656.19;105659;1256;59612;-80
2023/12/26 03:06:16;;;;;;;6.70;2.60;;;;;;;5.19;100.00;99655.84;105770;1254;71761;-79
2023/12/26 03:08:44;;;;;;;8.40;2.00;;;;;;;5.19;100.00;99667.11;106330;1258;64079;-77
2023/12/26 03:11:11;;;;;;;7.60;2.20;;;;;;;5.18;100.00;99670.95;105917;1254;74244;-79
2023/12/26 03:13:38;;;;;;;5.40;3.00;;;;;;;5.17;100.00;99672.62;105738;1257;60830;-82
2023/12/26 03:16:07;;;;;;;6.50;4.10;;;;;;;5.16;100.00;99681.48;105917;1252;59679;-82
2023/12/26 03:18:34;;;;;;;5.90;2.10;;;;;;;5.15;100.00;99686.55;105788;1253;73028;-81
2023/12/26 03:21:02;;;;;;;6.00;3.50;;;;;;;5.14;100.00;99690.09;105736;1253;62358;-81
2023/12/26 03:23:30;;;;;;;10.00;5.00;;;;;;;5.14;100.00;99696.35;105676;1254;71405;-81
2023/12/26 03:25:57;;;;;;;10.70;6.10;;;;;;;5.12;100.00;99696.94;105911;1252;60943;-79
2023/12/26 03:28:25;;;;;;;14.40;7.30;;;;;;;5.10;100.00;99694.48;105742;1257;59757;-79
2023/12/26 03:30:53;;;;;;;11.00;5.70;;;;;;;5.07;100.00;99688.20;105815;1253;73209;-80
2023/12/26 03:33:20;;;;;;;9.20;5.00;;;;;;;5.03;100.00;99693.94;105661;1257;62776;-80
2023/12/26 03:35:48;;;;;;;11.10;5.60;;;;;;;4.99;100.00;99698.11;105707;1253;71344;-83
2023/12/26 03:38:15;;;;;;;10.10;5.60;;;;;;;4.95;100.00;99710.45;105686;1253;61436;-79
2023/12/26 03:40:43;;;;;;;14.30;6.80;;;;;;;4.92;100.00;99710.09;105664;1253;59932;-81
2023/12/26 03:43:11;;;;;;;11.30;7.20;;;;;;;4.89;100.00;99709.08;106006;1253;74128;-79
2023/12/26 03:45:39;;;;;;;15.50;7.30;;;;;;;4.86;100.00;99709.89;105808;1257;63753;-79
2023/12/26 03:48:08;;;;;;;15.10;8.00;;;;;;;4.83;100.00;99722.86;105792;1254;71418;-77
2023/12/26 03:50:37;;;;;;;17.50;7.60;;;;;;;4.81;100.00;99722.64;105947;1254;60139;-80
2023/12/26 03:53:08;;;;;;;13.90;6.80;;;;;;;4.77;100.00;99726.98;105887;1256;59634;-79
2023/12/26 03:55:35;;;;;;;11.00;6.40;;;;;;;4.74;100.00;99725.20;105833;1254;73195;-79
2023/12/26 03:58:04;;;;;;;12.10;6.20;;;;;;;4.71;100.00;99733.65;105772;1252;63701;-80
2023/12/26 04:00:31;;;;;;;9.50;4.80;;;;;;;4.69;100.00;99743.66;105605;1253;72846;-79
2023/12/26 04:02:59;;;;;;;13.00;5.90;;;;;;;4.66;100.00;99749.85;105763;1253;60422;-79
2023/12/26 04:05:28;;;;;;;12.80;6.70;;;;;;;4.63;100.00;99753.11;105671;1253;60548;-78
2023/12/26 04:07:55;;;;;;;13.20;6.80;;;;;;;4.60;100.00;99752.07;105910;1257;73735;-79
2023/12/26 04:10:22;;;;;;;17.90;8.50;;;;;;;4.57;100.00;99758.41;105672;1254;62392;-81
2023/12/26 04:12:50;;;;;;;11.20;6.30;;;;;;;4.54;100.00;99762.19;105667;1253;72880;-80
2023/12/26 04:27:15;;;;;;;14.40;8.40;;;;;;;4.45;100.00;99780.84;102638;1291;600708;-81
2023/12/26 04:29:43;;;;;;;13.90;6.40;;;;;;;4.43;100.00;99794.60;104818;1268;60242;-79
2023/12/26 04:32:11;;;;;;;8.40;4.90;;;;;;;4.42;100.00;99801.54;104687;1266;59309;-79
2023/12/26 04:34:39;;;;;;;9.50;4.80;;;;;;;4.41;100.00;99809.90;104872;1267;71155;-79
2023/12/26 04:37:07;;;;;;;10.50;4.70;;;;;;;4.40;100.00;99817.21;104746;1272;63553;-78
2023/12/26 04:39:36;;;;;;;11.40;4.80;;;;;;;4.41;100.00;99817.69;104731;1274;72683;-79
2023/12/26 04:42:04;;;;;;;7.70;4.40;;;;;;;4.41;100.00;99816.30;105176;1264;178122;-81
2023/12/26 04:44:31;;;;;;;5.60;4.00;;;;;;;4.41;100.00;99817.20;105525;1260;59458;-80
2023/12/26 04:46:59;;;;;;;10.10;4.50;;;;;;;4.40;100.00;99821.22;105358;1260;70749;-80
2023/12/26 04:49:26;;;;;;;14.40;6.20;;;;;;;4.38;100.00;99824.95;105453;1257;62481;-82
2023/12/26 04:51:54;;;;;;;8.40;4.70;;;;;;;4.37;100.00;99837.79;105368;1259;71124;-81
2023/12/26 04:54:22;;;;;;;10.80;6.70;;;;;;;4.34;100.00;99839.45;105360;1261;61332;-79
2023/12/26 04:56:49;;;;;;;9.50;5.80;;;;;;;4.34;100.00;99839.48;105504;1256;62224;-80
2023/12/26 04:59:16;;;;;;;6.40;3.90;;;;;;;4.31;100.00;99838.56;105571;1256;73006;-80
2023/12/26 05:01:44;;;;;;;8.20;3.80;;;;;;;4.29;100.00;99842.31;105588;1261;62975;-80
2023/12/26 05:04:12;;;;;;;7.90;4.40;;;;;;;4.27;100.00;99844.84;105432;1258;72442;-81
2023/12/26 05:06:40;;;;;;;5.30;3.00;;;;;;;4.24;100.00;99839.45;105596;1256;59779;-80
2023/12/26 05:09:07;;;;;;;7.80;3.90;;;;;;;4.21;100.00;99841.81;105451;1261;59553;-80
2023/12/26 05:11:35;;;;;;;5.90;3.60;;;;;;;4.20;100.00;99846.54;105319;1256;73064;-79
2023/12/26 05:14:02;;;;;;;9.40;4.30;;;;;;;4.18;100.00;99846.83;105614;1256;62985;-80
2023/12/26 05:16:30;;;;;;;6.60;4.00;;;;;;;4.18;100.00;99856.34;105627;1260;71847;-81
2023/12/26 05:18:58;;;;;;;8.70;4.30;;;;;;;4.17;100.00;99854.14;105402;1256;59791;-81
2023/12/26 05:21:26;;;;;;;7.30;4.60;;;;;;;4.16;100.00;99855.38;105532;1257;59551;-80
2023/12/26 05:23:53;;;;;;;7.80;4.40;;;;;;;4.16;100.00;99859.02;105358;1256;71962;-81
2023/12/26 05:26:23;;;;;;;11.50;5.20;;;;;;;4.15;100.00;99867.85;105466;1260;62158;-80
2023/12/26 05:28:51;;;;;;;11.70;5.40;;;;;;;4.14;100.00;99875.35;105656;1260;72806;-80
2023/12/26 05:31:19;;;;;;;9.30;5.30;;;;;;;4.13;100.00;99878.83;105633;1256;59690;-80
2023/12/26 05:33:47;;;;;;;11.20;5.20;;;;;;;4.13;100.00;99881.95;105389;1257;60202;-82
2023/12/26 05:36:15;;;;;;;7.90;4.30;;;;;;;4.13;100.00;99886.98;105491;1257;71930;-81
2023/12/26 05:38:45;;;;;;;7.90;4.20;;;;;;;4.12;100.00;99894.09;105397;1256;62467;-80
2023/12/26 05:41:14;;;;;;;6.30;3.60;;;;;;;4.13;100.00;99900.96;105491;1256;71453;-79
2023/12/26 05:43:42;;;;;;;8.10;4.30;;;;;;;4.14;100.00;99903.05;105439;1261;59723;-80
2023/12/26 05:46:10;;;;;;;7.00;2.50;;;;;;;4.14;100.00;99907.19;105434;1256;59550;-82
2023/12/26 05:48:41;;;;;;;5.50;2.30;;;;;;;4.15;100.00;99913.02;105675;1256;75239;-81
2023/12/26 05:51:10;;;;;;;3.70;2.50;;;;;;;4.15;100.00;99920.98;105589;1257;63059;-80
2023/12/26 05:53:38;;;;;;;5.60;2.90;;;;;;;4.17;100.00;99921.76;105547;1257;70090;-80
2023/12/26 05:56:06;;;;;;;6.00;3.20;;;;;;;4.19;100.00;99920.46;105450;1259;59677;-79
2023/12/26 05:58:34;;;;;;;12.40;4.80;;;;;;;4.21;100.00;99920.35;105721;1261;59731;-79
2023/12/26 06:01:02;;;;;;;5.50;2.30;;;;;;;4.25;100.00;99923.83;105407;1256;73303;-79
2023/12/26 06:03:29;;;;;;;4.20;2.40;;;;;;;4.29;100.00;99923.29;105484;1256;63829;-80
2023/12/26 06:05:57;;;;;;;3.60;2.40;;;;;;;4.34;100.00;99924.98;105360;1258;71411;-79
2023/12/26 06:08:26;;;;;;;6.80;2.90;;;;;;;4.38;100.00;99931.73;105401;1260;59654;-79
2023/12/26 06:10:54;;;;;;;2.30;1.80;;;;;;;4.39;100.00;99925.27;105396;1258;59555;-79
2023/12/26 06:13:22;;;;;;;3.10;2.40;;;;;;;4.39;100.00;99932.69;105591;1256;73079;-79
2023/12/26 06:15:51;;;;;;;6.80;2.70;;;;;;;4.39;100.00;99933.25;105610;1256;62823;-81
2023/12/26 06:18:18;;;;;;;5.30;2.80;;;;;;;4.39;100.00;99934.46;105510;1258;72473;-80
2023/12/26 06:20:47;;;;;;;7.00;3.60;;;;;;;4.40;100.00;99940.80;105553;1260;59662;-80
2023/12/26 06:23:15;;;;;;;6.50;3.20;;;;;;;4.42;100.00;99949.70;105499;1260;59576;-81
2023/12/26 06:25:44;;;;;;;6.90;3.20;;;;;;;4.44;100.00;99953.93;105401;1261;73979;-80
2023/12/26 06:28:12;;;;;;;6.10;3.00;;;;;;;4.47;100.00;99961.58;105687;1258;64159;-78
2023/12/26 06:30:39;;;;;;;6.70;3.00;;;;;;;4.50;100.00;99961.27;105845;1253;72720;-80
2023/12/26 06:33:07;;;;;;;5.30;3.30;;;;;;;4.51;100.00;99969.02;105768;1253;59732;-81
2023/12/26 06:35:35;;;;;;;10.20;2.80;;;;;;;4.51;100.00;99974.05;105735;1257;59673;-78
2023/12/26 06:38:10;;;;;;;4.90;2.20;;;;;;;4.50;100.00;99981.52;105794;1254;71846;-80
2023/12/26 06:40:39;;;;;;;3.30;2.30;;;;;;;4.49;100.00;99980.17;106288;1253;62750;-81
2023/12/26 06:43:08;;;;;;;3.20;2.40;;;;;;;4.49;100.00;99982.97;105776;1257;71383;-81
2023/12/26 06:45:42;;;;;;;6.00;2.60;;;;;;;4.49;100.00;99990.23;105522;1252;62974;-79
2023/12/26 06:48:16;;;;;;;4.20;2.60;;;;;;;4.49;100.00;99990.58;105707;1256;60033;-81
2023/12/26 06:50:43;;;;;;;5.90;3.50;;;;;;;4.49;100.00;99996.12;106030;1253;73132;-80
2023/12/26 06:53:11;;;;;;;7.20;2.90;;;;;;;4.50;100.00;100001.77;105897;1256;63209;-79
2023/12/26 06:55:39;;;;;;;13.10;4.00;;;;;;;4.52;100.00;100004.09;105610;1256;71356;-79
2023/12/26 06:58:07;;;;;;;3.60;2.80;;;;;;;4.55;100.00;100011.05;105694;1256;59743;-78
2023/12/26 07:00:35;;;;;;;7.30;3.30;;;;;;;4.59;100.00;100016.95;105738;1258;59640;-80
2023/12/26 07:03:03;;;;;;;7.60;3.50;;;;;;;4.63;100.00;100025.10;105556;1258;72511;-80
2023/12/26 07:05:31;;;;;;;6.10;3.40;;;;;;;4.67;100.00;100031.16;105522;1258;63561;-78
2023/12/26 07:07:59;;;;;;;6.30;4.00;;;;;;;4.70;100.00;100037.06;105734;1253;73469;-82
2023/12/26 07:10:26;;;;;;;8.60;4.90;;;;;;;4.74;100.00;100041.22;105769;1253;60106;-81
2023/12/26 07:12:54;;;;;;;9.80;4.80;;;;;;;4.78;100.00;100048.66;105767;1258;59806;-80
2023/12/26 07:15:22;;;;;;;9.10;4.40;;;;;;;4.82;100.00;100052.45;105727;1257;73132;-82
2023/12/26 07:17:50;;;;;;;6.70;3.50;;;;;;;4.88;100.00;100059.64;105691;1258;63710;-82
2023/12/26 07:20:19;;;;;;;5.70;2.00;;;;;;;4.93;100.00;100063.03;105697;1254;71655;-81
2023/12/26 07:22:47;;;;;;;3.40;2.10;;;;;;;4.97;100.00;100069.77;105797;1255;59751;-80
2023/12/26 07:25:14;;;;;;;6.00;3.20;;;;;;;5.01;100.00;100080.35;105599;1260;59640;-80
2023/12/26 07:27:42;;;;;;;4.90;3.00;;;;;;;5.03;100.00;100083.52;105685;1253;72197;-81
2023/12/26 07:30:09;;;;;;;5.20;2.70;;;;;;;5.06;100.00;100086.89;105772;1253;62390;-82
2023/12/26 07:32:38;;;;;;;3.80;2.30;;;;;;;5.09;100.00;100088.98;105748;1258;74755;-81
2023/12/26 07:35:05;;;;;;;5.40;2.40;;;;;;;5.14;100.00;100088.42;105717;1253;59624;-81
2023/12/26 07:37:33;;;;;;;5.90;3.40;;;;;;;5.17;100.00;100097.61;105873;1252;60145;-82
2023/12/26 07:40:00;;;;;;;5.30;3.40;;;;;;;5.22;100.00;100102.12;105787;1252;71866;-81
2023/12/26 07:42:28;;;;;;;6.50;3.40;;;;;;;5.26;100.00;100116.13;106748;1258;63539;-81
2023/12/26 07:44:56;;;;;;;6.50;3.20;;;;;;;5.31;100.00;100123.14;106142;1252;71741;-79
2023/12/26 07:47:23;;;;;;;5.70;3.60;;;;;;;5.37;100.00;100122.52;106068;1252;60926;-82
2023/12/26 07:49:51;;;;;;;9.60;3.80;;;;;;;5.43;100.00;100129.88;106179;1252;59936;-80
2023/12/26 07:52:19;;;;;;;7.60;4.50;;;;;;;5.49;100.00;100128.04;107830;1252;74483;-80
2023/12/26 07:54:47;;;;;;;7.60;4.60;;;;;;;5.59;100.00;100129.30;107703;1253;62628;-79
2023/12/26 07:57:15;;;;;;;8.70;4.40;;;;;;;5.72;100.00;100132.86;106807;1257;71685;-80
2023/12/26 07:59:43;;;;;;;12.70;5.80;;;;;;;5.84;100.00;100138.50;106421;1253;59727;-79
2023/12/26 08:02:10;;;;;;;11.00;4.90;;;;;;;5.97;100.00;100137.41;106154;1252;60048;-80
2023/12/26 08:04:38;;;;;;;7.70;5.90;;;;;;;6.06;100.00;100141.33;105878;1253;71053;-80
2023/12/26 08:07:07;;;;;;;9.40;5.40;;;;;;;6.13;100.00;100142.54;105843;1253;62431;-81
2023/12/26 08:09:35;;;;;;;9.70;5.20;;;;;;;6.18;100.00;100148.54;106137;1256;73235;-80
2023/12/26 08:12:04;;;;;;;12.70;5.40;;;;;;;6.23;100.00;100151.92;106215;1258;59795;-78
2023/12/26 08:14:32;;;;;;;10.60;4.90;;;;;;;6.30;100.00;100154.88;105989;1258;59705;-79
2023/12/26 08:16:59;;;;;;;11.40;5.70;;;;;;;6.38;100.00;100166.11;105789;1252;71027;-80
2023/12/26 08:19:27;;;;;;;10.70;5.40;;;;;;;6.46;100.00;100170.04;105737;1253;63018;-79
2023/12/26 08:21:55;;;;;;;9.40;5.20;;;;;;;6.52;100.00;100167.30;105781;1256;71137;-80
2023/12/26 08:24:23;;;;;;;8.90;5.40;;;;;;;6.57;100.00;100167.94;105724;1253;59761;-81
2023/12/26 08:26:53;;;;;;;11.20;5.30;;;;;;;6.61;100.00;100172.24;105728;1253;60054;-81
2023/12/26 08:29:21;;;;;;;12.90;6.50;;;;;;;6.66;100.00;100175.65;106047;1258;74068;-79
2023/12/26 08:31:49;;;;;;;10.80;5.00;;;;;;;6.68;100.00;100174.13;105837;1258;63636;-82
2023/12/26 08:34:16;;;;;;;11.40;5.30;;;;;;;6.73;100.00;100174.05;105689;1258;70661;-81
2023/12/26 08:36:43;;;;;;;11.10;4.60;;;;;;;6.78;100.00;100177.98;105739;1258;60791;-82
2023/12/26 08:39:11;;;;;;;9.50;5.00;;;;;;;6.82;100.00;100177.94;105873;1258;60553;-82
2023/12/26 08:41:38;;;;;;;6.00;3.90;;;;;;;6.84;100.00;100182.67;105754;1258;72622;-79
2023/12/26 08:44:07;;;;;;;10.30;4.30;;;;;;;6.87;100.00;100179.41;105597;1258;63609;-82
2023/12/26 08:46:34;;;;;;;8.30;3.90;;;;;;;6.90;100.00;100183.27;105788;1252;72840;-81
2023/12/26 08:49:05;;;;;;;6.90;4.20;;;;;;;6.93;100.00;100180.69;105732;1255;60841;-81
2023/12/26 08:51:38;;;;;;;9.00;4.30;;;;;;;6.97;100.00;100185.70;105681;1258;60445;-78
2023/12/26 08:54:05;;;;;;;10.10;4.20;;;;;;;7.01;100.00;100187.40;105773;1253;74145;-81
2023/12/26 08:56:38;;;;;;;10.50;3.60;;;;;;;7.06;100.00;100186.59;105779;1258;62422;-79
2023/12/26 08:59:06;;;;;;;7.50;3.30;;;;;;;7.13;100.00;100188.52;105737;1256;71545;-81
2023/12/26 09:01:35;;;;;;;7.80;3.50;;;;;;;7.20;100.00;100194.90;105809;1253;60536;-79
2023/12/26 09:16:19;;;;;;;5.70;2.70;;;;;;;7.92;100.00;100193.61;102568;1291;601193;-82
2023/12/26 09:18:47;;;;;;;4.50;1.80;;;;;;;8.00;100.00;100192.67;104837;1266;59745;-80
2023/12/26 09:21:15;;;;;;;7.10;2.20;;;;;;;8.08;100.00;100200.20;104883;1264;60904;-80
2023/12/26 09:23:43;;;;;;;4.60;2.40;;;;;;;8.16;100.00;100200.33;105078;1266;71750;-81
2023/12/26 09:26:12;;;;;;;7.20;2.50;;;;;;;8.21;100.00;100194.27;105153;1266;64847;-80
2023/12/26 09:28:40;;;;;;;6.90;3.30;;;;;;;8.24;100.00;100198.77;105198;1266;74317;-81
2023/12/26 09:31:08;;;;;;;7.10;3.50;;;;;;;8.27;100.00;100201.75;105199;1265;201819;-80
2023/12/26 09:33:36;;;;;;;6.70;2.90;;;;;;;8.29;100.00;100200.05;105304;1260;60279;-84
2023/12/26 09:36:04;;;;;;;9.90;3.50;;;;;;;8.32;100.00;100208.09;105305;1260;72262;-80
2023/12/26 09:38:32;;;;;;;7.00;3.70;;;;;;;8.34;100.00;100215.29;105334;1260;62885;-84
2023/12/26 09:41:00;;;;;;;8.40;3.10;;;;;;;8.34;100.00;100221.05;105243;1265;71495;-82
2023/12/26 09:43:28;;;;;;;6.10;3.80;;;;;;;8.35;100.00;100219.93;105261;1261;59782;-81
2023/12/26 09:45:56;;;;;;;7.70;2.50;;;;;;;8.39;100.00;100223.38;105451;1264;59570;-81
2023/12/26 09:48:24;;;;;;;3.40;2.00;;;;;;;8.42;100.00;100234.52;105535;1259;72742;-78
2023/12/26 09:50:53;;;;;;;6.90;2.40;;;;;;;8.45;100.00;100232.12;105372;1265;66468;-81
2023/12/26 09:53:22;;;;;;;8.00;2.50;;;;;;;8.49;100.00;100237.42;105383;1264;70632;-81
2023/12/26 09:55:50;;;;;;;5.90;2.20;;;;;;;8.54;100.00;100243.98;105259;1267;60128;-81
2023/12/26 09:58:18;;;;;;;5.50;1.80;;;;;;;8.59;100.00;100234.44;105188;1267;59622;-82
2023/12/26 10:00:46;;;;;;;7.60;2.10;;;;;;;8.62;100.00;100242.77;105238;1257;74029;-80
2023/12/26 10:03:14;;;;;;;2.90;1.70;;;;;;;8.66;100.00;100252.16;105151;1264;66463;-79
2023/12/26 10:05:42;;;;;;;3.90;1.60;;;;;;;8.68;100.00;100256.91;105253;1261;71396;-81
2023/12/26 10:08:09;;;;;;;5.30;2.30;;;;;;;8.66;100.00;100260.52;105274;1264;61710;-80
2023/12/26 10:10:37;;;;;;;5.50;1.90;;;;;;;8.61;100.00;100253.33;105346;1258;60887;-82
2023/12/26 10:13:05;;;;;;;3.50;1.40;;;;;;;8.59;100.00;100249.27;105384;1260;71856;-80
2023/12/26 10:15:33;;;;;;;8.40;1.60;;;;;;;8.55;100.00;100255.39;105445;1259;65547;-78
2023/12/26 10:18:01;;;;;;;10.30;3.40;;;;;;;8.51;100.00;100253.91;105436;1265;72143;-79
2023/12/26 10:20:31;;;;;;;7.50;2.00;;;;;;;8.46;100.00;100250.55;105459;1260;59833;-80
2023/12/26 10:22:58;;;;;;;11.20;3.10;;;;;;;8.40;100.00;100255.02;105200;1267;59735;-80
2023/12/26 10:25:26;;;;;;;6.20;2.70;;;;;;;8.36;100.00;100257.88;105160;1257;72913;-79
2023/12/26 10:27:57;;;;;;;9.50;4.60;;;;;;;8.29;100.00;100261.89;105326;1260;61706;-82
2023/12/26 10:30:26;;;;;;;23.30;7.70;;;;;;;8.22;100.00;100261.92;105277;1265;71950;-81
2023/12/26 10:33:01;;;;;;;17.70;7.30;;;;;;;8.17;100.00;100261.37;105225;1265;61293;-82
2023/12/26 10:35:30;;;;;;;15.40;7.00;;;;;;;8.13;100.00;100259.15;105112;1266;59632;-82
2023/12/26 10:37:57;;;;;;;18.40;7.30;;;;;;;8.09;100.00;100258.31;105294;1260;73366;-81
2023/12/26 10:40:26;;;;;;;16.60;6.80;;;;;;;8.06;100.00;100268.59;105402;1259;64007;-79
2023/12/26 10:42:53;;;;;;;17.10;6.80;;;;;;;8.04;100.00;100267.46;105352;1263;73073;-81
2023/12/26 10:45:22;;;;;;;8.50;5.20;;;;;;;8.04;100.00;100268.86;105279;1263;59688;-81
2023/12/26 10:47:50;;;;;;;10.30;4.80;;;;;;;8.03;100.00;100264.23;105322;1260;60837;-80
2023/12/26 10:50:18;;;;;;;11.20;4.30;;;;;;;7.99;100.00;100260.06;105064;1267;72119;-80
2023/12/26 12:11:07;;;;;;;9.70;2.90;;;;;;;8.63;100.00;100325.52;102470;1290;603036;-80
2023/12/26 12:13:35;;;;;;;5.00;2.00;;;;;;;8.77;100.00;100321.96;105095;1267;59964;-82
2023/12/26 12:16:02;;;;;;;5.10;2.40;;;;;;;8.87;100.00;100319.09;105179;1271;59340;-80
2023/12/26 12:18:29;;;;;;;3.80;2.00;;;;;;;8.90;100.00;100319.24;104911;1267;72116;-80
2023/12/26 12:20:56;;;;;;;2.80;1.80;;;;;;;8.91;100.00;100321.98;104917;1269;62764;-81
2023/12/26 12:23:23;;;;;;;6.20;2.40;;;;;;;8.88;100.00;100328.64;104782;1265;178725;-83
2023/12/26 12:25:53;;;;;;;5.90;1.90;;;;;;;8.84;100.00;100332.52;105071;1264;62152;-83
2023/12/26 12:28:20;;;;;;;7.10;2.30;;;;;;;8.81;100.00;100328.86;105112;1267;59241;-82
2023/12/26 12:30:47;;;;;;;4.70;2.40;;;;;;;8.76;100.00;100335.05;105053;1263;72125;-79
2023/12/26 12:33:20;;;;;;;7.90;2.90;;;;;;;8.70;100.00;100332.41;104938;1264;62819;-81
2023/12/26 12:35:48;;;;;;;5.20;3.00;;;;;;;8.64;100.00;100336.77;105191;1264;71692;-81
2023/12/26 12:38:15;;;;;;;6.30;3.00;;;;;;;8.58;100.00;100337.83;105193;1264;63193;-79
2023/12/26 12:40:43;;;;;;;4.60;3.10;;;;;;;8.51;100.00;100340.13;105616;1264;60253;-80
2023/12/26 12:43:10;;;;;;;8.30;3.00;;;;;;;8.44;100.00;100341.05;105461;1260;71738;-79
2023/12/26 12:45:38;;;;;;;5.80;3.10;;;;;;;8.39;100.00;100349.48;105386;1260;63867;-79
2023/12/26 12:48:05;;;;;;;9.80;2.90;;;;;;;8.34;100.00;100347.30;105307;1263;72868;-78
2023/12/26 12:50:32;;;;;;;8.60;3.20;;;;;;;8.29;100.00;100354.00;105296;1262;60614;-81
2023/12/26 12:52:58;;;;;;;5.00;2.90;;;;;;;8.25;100.00;100347.98;105340;1261;60264;-82
2023/12/26 12:55:25;;;;;;;7.60;3.90;;;;;;;8.23;100.00;100348.97;105297;1263;73220;-81
2023/12/26 12:57:56;;;;;;;13.50;5.00;;;;;;;8.18;100.00;100345.73;105366;1260;64013;-82
2023/12/26 13:00:25;;;;;;;6.60;3.60;;;;;;;8.13;100.00;100345.66;105469;1263;72691;-81
2023/12/26 13:02:52;;;;;;;5.20;3.70;;;;;;;8.07;100.00;100351.21;105294;1260;60792;-80
2023/12/26 13:05:20;;;;;;;13.50;5.20;;;;;;;8.01;100.00;100349.14;105348;1261;60221;-81